sensor_id;sensor_type;location;lat;lon;timestamp;P1;durP1;ratioP1;P2;durP2;ratioP2
20000;SDS011;10161;41.188;-8.642;2023-05-10T00:02:06;14.07;;;3.90;;
20000;SDS011;10161;41.188;-8.642;2023-05-10T00:04:34;17.37;;;4.67;;
20000;SDS011;10161;41.188;-8.642;2023-05-10T00:07:01;12.33;;;3.90;;
20000;SDS011;10161;41.188;-8.642;2023-05-10T00:09:29;10.27;;;3.00;;
20000;SDS011;10161;41.188;-8.642;2023-05-10T00:11:57;7.73;;;3.13;;
20000;SDS011;10161;41.188;-8.642;2023-05-10T00:14:26;10.57;;;3.50;;
20000;SDS011;10161;41.188;-8.642;2023-05-10T00:16:53;17.07;;;4.33;;
20000;SDS011;10161;41.188;-8.642;2023-05-10T00:19:20;12.70;;;3.57;;
20000;SDS011;10161;41.188;-8.642;2023-05-10T00:21:47;16.47;;;3.50;;
20000;SDS011;10161;41.188;-8.642;2023-05-10T00:24:14;14.73;;;4.43;;
20000;SDS011;10161;41.188;-8.642;2023-05-10T00:26:43;10.80;;;3.27;;
20000;SDS011;10161;41.188;-8.642;2023-05-10T00:29:10;9.67;;;3.13;;
20000;SDS011;10161;41.188;-8.642;2023-05-10T00:31:37;10.30;;;3.07;;
20000;SDS011;10161;41.188;-8.642;2023-05-10T00:34:04;10.00;;;3.57;;
20000;SDS011;10161;41.188;-8.642;2023-05-10T00:36:32;11.33;;;3.20;;
20000;SDS011;10161;41.188;-8.642;2023-05-10T00:38:59;14.43;;;3.70;;
20000;SDS011;10161;41.188;-8.642;2023-05-10T00:41:26;9.23;;;3.80;;
20000;SDS011;10161;41.188;-8.642;2023-05-10T00:43:55;11.50;;;3.33;;
20000;SDS011;10161;41.188;-8.642;2023-05-10T00:46:21;10.77;;;3.47;;
20000;SDS011;10161;41.188;-8.642;2023-05-10T00:48:50;11.73;;;3.67;;
20000;SDS011;10161;41.188;-8.642;2023-05-10T00:51:17;14.00;;;3.73;;
20000;SDS011;10161;41.188;-8.642;2023-05-10T00:53:45;8.00;;;2.90;;
20000;SDS011;10161;41.188;-8.642;2023-05-10T00:56:12;13.00;;;3.27;;
20000;SDS011;10161;41.188;-8.642;2023-05-10T00:58:39;11.00;;;3.20;;
20000;SDS011;10161;41.188;-8.642;2023-05-10T01:01:08;11.80;;;3.93;;
20000;SDS011;10161;41.188;-8.642;2023-05-10T01:03:36;14.90;;;3.30;;
20000;SDS011;10161;41.188;-8.642;2023-05-10T01:06:03;14.00;;;3.30;;
20000;SDS011;10161;41.188;-8.642;2023-05-10T01:08:30;11.07;;;3.97;;
20000;SDS011;10161;41.188;-8.642;2023-05-10T01:10:57;11.57;;;3.60;;
20000;SDS011;10161;41.188;-8.642;2023-05-10T01:13:29;11.53;;;3.33;;
20000;SDS011;10161;41.188;-8.642;2023-05-10T01:15:58;10.50;;;3.30;;
20000;SDS011;10161;41.188;-8.642;2023-05-10T01:18:30;9.17;;;3.50;;
20000;SDS011;10161;41.188;-8.642;2023-05-10T01:21:01;11.70;;;3.40;;
20000;SDS011;10161;41.188;-8.642;2023-05-10T01:26:48;13.70;;;3.63;;
20000;SDS011;10161;41.188;-8.642;2023-05-10T01:29:40;11.03;;;3.50;;
20000;SDS011;10161;41.188;-8.642;2023-05-10T01:32:32;7.40;;;3.23;;
20000;SDS011;10161;41.188;-8.642;2023-05-10T01:35:04;7.03;;;2.90;;
20000;SDS011;10161;41.188;-8.642;2023-05-10T01:37:38;10.03;;;3.20;;
20000;SDS011;10161;41.188;-8.642;2023-05-10T01:40:10;9.53;;;3.03;;
20000;SDS011;10161;41.188;-8.642;2023-05-10T01:42:46;10.70;;;3.37;;
20000;SDS011;10161;41.188;-8.642;2023-05-10T01:45:18;6.27;;;2.77;;
20000;SDS011;10161;41.188;-8.642;2023-05-10T01:47:50;8.67;;;2.83;;
20000;SDS011;10161;41.188;-8.642;2023-05-10T01:50:24;8.03;;;3.00;;
20000;SDS011;10161;41.188;-8.642;2023-05-10T01:52:55;8.30;;;2.57;;
20000;SDS011;10161;41.188;-8.642;2023-05-10T01:55:24;5.93;;;2.67;;
20000;SDS011;10161;41.188;-8.642;2023-05-10T01:57:53;7.97;;;2.67;;
20000;SDS011;10161;41.188;-8.642;2023-05-10T02:00:25;9.33;;;2.40;;
20000;SDS011;10161;41.188;-8.642;2023-05-10T02:02:55;9.57;;;2.90;;
20000;SDS011;10161;41.188;-8.642;2023-05-10T02:05:24;11.10;;;3.70;;
20000;SDS011;10161;41.188;-8.642;2023-05-10T02:07:51;6.50;;;2.40;;
20000;SDS011;10161;41.188;-8.642;2023-05-10T02:10:19;7.90;;;2.43;;
20000;SDS011;10161;41.188;-8.642;2023-05-10T02:12:47;8.90;;;3.10;;
20000;SDS011;10161;41.188;-8.642;2023-05-10T02:15:15;12.00;;;3.80;;
20000;SDS011;10161;41.188;-8.642;2023-05-10T02:17:46;6.70;;;2.17;;
20000;SDS011;10161;41.188;-8.642;2023-05-10T02:20:15;8.90;;;2.77;;
20000;SDS011;10161;41.188;-8.642;2023-05-10T02:22:43;9.03;;;2.70;;
20000;SDS011;10161;41.188;-8.642;2023-05-10T02:25:11;16.03;;;3.93;;
20000;SDS011;10161;41.188;-8.642;2023-05-10T02:27:40;8.50;;;2.87;;
20000;SDS011;10161;41.188;-8.642;2023-05-10T02:30:08;11.10;;;3.50;;
20000;SDS011;10161;41.188;-8.642;2023-05-10T02:32:36;11.07;;;3.60;;
20000;SDS011;10161;41.188;-8.642;2023-05-10T02:35:04;9.60;;;3.27;;
20000;SDS011;10161;41.188;-8.642;2023-05-10T02:37:34;10.50;;;2.60;;
20000;SDS011;10161;41.188;-8.642;2023-05-10T02:40:02;11.40;;;2.60;;
20000;SDS011;10161;41.188;-8.642;2023-05-10T02:42:32;10.60;;;2.77;;
20000;SDS011;10161;41.188;-8.642;2023-05-10T02:45:03;8.20;;;3.20;;
20000;SDS011;10161;41.188;-8.642;2023-05-10T02:47:34;9.57;;;2.90;;
20000;SDS011;10161;41.188;-8.642;2023-05-10T02:50:02;11.30;;;3.00;;
20000;SDS011;10161;41.188;-8.642;2023-05-10T02:52:35;9.80;;;3.60;;
20000;SDS011;10161;41.188;-8.642;2023-05-10T02:55:06;13.63;;;2.73;;
20000;SDS011;10161;41.188;-8.642;2023-05-10T02:57:36;8.70;;;2.73;;
20000;SDS011;10161;41.188;-8.642;2023-05-10T03:00:07;13.27;;;3.47;;
20000;SDS011;10161;41.188;-8.642;2023-05-10T03:02:35;9.40;;;2.97;;
20000;SDS011;10161;41.188;-8.642;2023-05-10T03:05:02;8.77;;;2.73;;
20000;SDS011;10161;41.188;-8.642;2023-05-10T03:07:30;9.90;;;3.20;;
20000;SDS011;10161;41.188;-8.642;2023-05-10T03:09:59;8.80;;;3.17;;
20000;SDS011;10161;41.188;-8.642;2023-05-10T03:12:28;9.73;;;3.20;;
20000;SDS011;10161;41.188;-8.642;2023-05-10T03:15:03;10.33;;;3.57;;
20000;SDS011;10161;41.188;-8.642;2023-05-10T03:17:35;13.10;;;3.80;;
20000;SDS011;10161;41.188;-8.642;2023-05-10T03:20:08;10.53;;;3.80;;
20000;SDS011;10161;41.188;-8.642;2023-05-10T03:22:37;13.40;;;3.90;;
20000;SDS011;10161;41.188;-8.642;2023-05-10T03:25:08;9.70;;;3.33;;
20000;SDS011;10161;41.188;-8.642;2023-05-10T03:27:38;14.00;;;2.80;;
20000;SDS011;10161;41.188;-8.642;2023-05-10T03:30:07;11.03;;;3.27;;
20000;SDS011;10161;41.188;-8.642;2023-05-10T03:32:35;15.67;;;3.37;;
20000;SDS011;10161;41.188;-8.642;2023-05-10T03:35:05;16.17;;;4.80;;
20000;SDS011;10161;41.188;-8.642;2023-05-10T03:37:33;13.40;;;5.87;;
20000;SDS011;10161;41.188;-8.642;2023-05-10T03:40:01;10.20;;;5.00;;
20000;SDS011;10161;41.188;-8.642;2023-05-10T03:42:30;12.70;;;4.30;;
20000;SDS011;10161;41.188;-8.642;2023-05-10T03:44:57;9.90;;;3.80;;
20000;SDS011;10161;41.188;-8.642;2023-05-10T03:47:26;8.70;;;3.40;;
20000;SDS011;10161;41.188;-8.642;2023-05-10T03:49:54;9.50;;;3.00;;
20000;SDS011;10161;41.188;-8.642;2023-05-10T03:52:21;5.43;;;2.30;;
20000;SDS011;10161;41.188;-8.642;2023-05-10T03:54:49;6.30;;;2.73;;
20000;SDS011;10161;41.188;-8.642;2023-05-10T03:57:16;5.97;;;2.77;;
20000;SDS011;10161;41.188;-8.642;2023-05-10T03:59:44;7.80;;;2.40;;
20000;SDS011;10161;41.188;-8.642;2023-05-10T04:02:12;10.43;;;3.07;;
20000;SDS011;10161;41.188;-8.642;2023-05-10T04:04:39;8.20;;;2.70;;
20000;SDS011;10161;41.188;-8.642;2023-05-10T04:07:06;8.70;;;3.43;;
20000;SDS011;10161;41.188;-8.642;2023-05-10T04:09:33;11.50;;;3.30;;
20000;SDS011;10161;41.188;-8.642;2023-05-10T04:12:00;7.57;;;2.73;;
20000;SDS011;10161;41.188;-8.642;2023-05-10T04:14:28;10.20;;;2.97;;
20000;SDS011;10161;41.188;-8.642;2023-05-10T04:16:57;6.40;;;2.50;;
20000;SDS011;10161;41.188;-8.642;2023-05-10T04:19:23;9.30;;;3.13;;
20000;SDS011;10161;41.188;-8.642;2023-05-10T04:21:50;7.80;;;3.10;;
20000;SDS011;10161;41.188;-8.642;2023-05-10T04:24:18;7.70;;;2.30;;
20000;SDS011;10161;41.188;-8.642;2023-05-10T04:26:46;7.30;;;2.47;;
20000;SDS011;10161;41.188;-8.642;2023-05-10T04:29:13;6.50;;;2.33;;
20000;SDS011;10161;41.188;-8.642;2023-05-10T04:31:40;6.27;;;2.00;;
20000;SDS011;10161;41.188;-8.642;2023-05-10T04:34:08;6.73;;;2.23;;
20000;SDS011;10161;41.188;-8.642;2023-05-10T04:36:35;8.13;;;2.50;;
20000;SDS011;10161;41.188;-8.642;2023-05-10T04:39:02;7.30;;;2.03;;
20000;SDS011;10161;41.188;-8.642;2023-05-10T04:41:30;5.67;;;2.10;;
20000;SDS011;10161;41.188;-8.642;2023-05-10T04:43:57;3.93;;;1.70;;
20000;SDS011;10161;41.188;-8.642;2023-05-10T04:46:25;4.20;;;1.87;;
20000;SDS011;10161;41.188;-8.642;2023-05-10T04:48:53;5.83;;;2.53;;
20000;SDS011;10161;41.188;-8.642;2023-05-10T04:51:22;8.27;;;2.10;;
20000;SDS011;10161;41.188;-8.642;2023-05-10T04:53:48;4.47;;;2.37;;
20000;SDS011;10161;41.188;-8.642;2023-05-10T04:56:17;4.47;;;2.37;;
20000;SDS011;10161;41.188;-8.642;2023-05-10T04:58:45;10.00;;;2.80;;
20000;SDS011;10161;41.188;-8.642;2023-05-10T05:01:12;6.30;;;2.53;;
20000;SDS011;10161;41.188;-8.642;2023-05-10T05:03:40;9.60;;;3.20;;
20000;SDS011;10161;41.188;-8.642;2023-05-10T05:06:07;7.53;;;2.30;;
20000;SDS011;10161;41.188;-8.642;2023-05-10T05:08:36;5.07;;;2.37;;
20000;SDS011;10161;41.188;-8.642;2023-05-10T05:11:03;8.30;;;2.40;;
20000;SDS011;10161;41.188;-8.642;2023-05-10T05:13:31;4.87;;;2.50;;
20000;SDS011;10161;41.188;-8.642;2023-05-10T05:15:59;4.80;;;2.03;;
20000;SDS011;10161;41.188;-8.642;2023-05-10T05:18:27;8.57;;;2.13;;
20000;SDS011;10161;41.188;-8.642;2023-05-10T05:20:54;8.60;;;2.47;;
20000;SDS011;10161;41.188;-8.642;2023-05-10T05:23:21;5.17;;;2.27;;
20000;SDS011;10161;41.188;-8.642;2023-05-10T05:25:52;7.40;;;2.73;;
20000;SDS011;10161;41.188;-8.642;2023-05-10T05:28:19;9.93;;;2.63;;
20000;SDS011;10161;41.188;-8.642;2023-05-10T05:30:46;6.40;;;2.70;;
20000;SDS011;10161;41.188;-8.642;2023-05-10T05:33:13;7.63;;;2.57;;
20000;SDS011;10161;41.188;-8.642;2023-05-10T05:35:41;8.17;;;3.07;;
20000;SDS011;10161;41.188;-8.642;2023-05-10T05:38:12;11.47;;;3.23;;
20000;SDS011;10161;41.188;-8.642;2023-05-10T05:40:39;5.27;;;2.17;;
20000;SDS011;10161;41.188;-8.642;2023-05-10T05:43:08;7.03;;;2.60;;
20000;SDS011;10161;41.188;-8.642;2023-05-10T05:45:35;4.33;;;2.27;;
20000;SDS011;10161;41.188;-8.642;2023-05-10T05:48:03;9.47;;;2.43;;
20000;SDS011;10161;41.188;-8.642;2023-05-10T05:50:30;8.60;;;2.40;;
20000;SDS011;10161;41.188;-8.642;2023-05-10T05:52:58;7.00;;;2.80;;
20000;SDS011;10161;41.188;-8.642;2023-05-10T05:55:25;7.53;;;2.63;;
20000;SDS011;10161;41.188;-8.642;2023-05-10T05:57:52;4.30;;;2.40;;
20000;SDS011;10161;41.188;-8.642;2023-05-10T06:00:20;7.40;;;2.30;;
20000;SDS011;10161;41.188;-8.642;2023-05-10T06:02:47;7.70;;;2.77;;
20000;SDS011;10161;41.188;-8.642;2023-05-10T06:05:15;9.87;;;2.97;;
20000;SDS011;10161;41.188;-8.642;2023-05-10T06:07:42;5.43;;;2.20;;
20000;SDS011;10161;41.188;-8.642;2023-05-10T06:10:09;6.50;;;2.90;;
20000;SDS011;10161;41.188;-8.642;2023-05-10T06:12:37;3.67;;;2.70;;
20000;SDS011;10161;41.188;-8.642;2023-05-10T06:15:05;7.67;;;2.80;;
20000;SDS011;10161;41.188;-8.642;2023-05-10T06:17:34;5.90;;;2.47;;
20000;SDS011;10161;41.188;-8.642;2023-05-10T06:20:01;7.43;;;2.83;;
20000;SDS011;10161;41.188;-8.642;2023-05-10T06:22:28;7.63;;;2.80;;
20000;SDS011;10161;41.188;-8.642;2023-05-10T06:24:55;5.87;;;2.70;;
20000;SDS011;10161;41.188;-8.642;2023-05-10T06:27:22;10.07;;;2.90;;
20000;SDS011;10161;41.188;-8.642;2023-05-10T06:29:49;7.43;;;3.30;;
20000;SDS011;10161;41.188;-8.642;2023-05-10T06:32:17;5.60;;;2.80;;
20000;SDS011;10161;41.188;-8.642;2023-05-10T06:34:47;7.33;;;3.10;;
20000;SDS011;10161;41.188;-8.642;2023-05-10T06:37:14;6.80;;;2.53;;
20000;SDS011;10161;41.188;-8.642;2023-05-10T06:39:42;7.47;;;2.50;;
20000;SDS011;10161;41.188;-8.642;2023-05-10T06:42:09;7.90;;;2.50;;
20000;SDS011;10161;41.188;-8.642;2023-05-10T06:44:36;10.40;;;2.87;;
20000;SDS011;10161;41.188;-8.642;2023-05-10T06:47:03;7.50;;;2.67;;
20000;SDS011;10161;41.188;-8.642;2023-05-10T06:49:30;9.37;;;3.30;;
20000;SDS011;10161;41.188;-8.642;2023-05-10T06:51:59;9.50;;;3.30;;
20000;SDS011;10161;41.188;-8.642;2023-05-10T06:54:26;7.67;;;2.90;;
20000;SDS011;10161;41.188;-8.642;2023-05-10T06:56:53;7.37;;;2.73;;
20000;SDS011;10161;41.188;-8.642;2023-05-10T06:59:20;10.90;;;3.20;;
20000;SDS011;10161;41.188;-8.642;2023-05-10T07:01:47;12.83;;;3.40;;
20000;SDS011;10161;41.188;-8.642;2023-05-10T07:04:15;8.20;;;2.90;;
20000;SDS011;10161;41.188;-8.642;2023-05-10T07:06:45;7.10;;;2.70;;
20000;SDS011;10161;41.188;-8.642;2023-05-10T07:09:13;13.23;;;3.33;;
20000;SDS011;10161;41.188;-8.642;2023-05-10T07:11:40;5.73;;;2.60;;
20000;SDS011;10161;41.188;-8.642;2023-05-10T07:14:07;9.47;;;2.50;;
20000;SDS011;10161;41.188;-8.642;2023-05-10T07:16:34;5.97;;;2.90;;
20000;SDS011;10161;41.188;-8.642;2023-05-10T07:19:01;10.70;;;3.67;;
20000;SDS011;10161;41.188;-8.642;2023-05-10T07:21:30;5.87;;;2.80;;
20000;SDS011;10161;41.188;-8.642;2023-05-10T07:23:57;9.90;;;3.17;;
20000;SDS011;10161;41.188;-8.642;2023-05-10T07:26:26;5.37;;;2.67;;
20000;SDS011;10161;41.188;-8.642;2023-05-10T07:28:54;9.00;;;2.90;;
20000;SDS011;10161;41.188;-8.642;2023-05-10T07:31:21;7.33;;;2.80;;
20000;SDS011;10161;41.188;-8.642;2023-05-10T07:33:48;10.43;;;3.00;;
20000;SDS011;10161;41.188;-8.642;2023-05-10T07:36:15;6.53;;;2.67;;
20000;SDS011;10161;41.188;-8.642;2023-05-10T07:38:43;7.67;;;2.70;;
20000;SDS011;10161;41.188;-8.642;2023-05-10T07:41:10;13.17;;;3.30;;
20000;SDS011;10161;41.188;-8.642;2023-05-10T07:43:40;9.43;;;3.30;;
20000;SDS011;10161;41.188;-8.642;2023-05-10T07:46:07;9.43;;;3.00;;
20000;SDS011;10161;41.188;-8.642;2023-05-10T07:48:36;8.77;;;2.50;;
20000;SDS011;10161;41.188;-8.642;2023-05-10T07:51:04;8.47;;;3.50;;
20000;SDS011;10161;41.188;-8.642;2023-05-10T07:53:34;6.93;;;2.63;;
20000;SDS011;10161;41.188;-8.642;2023-05-10T07:58:48;8.30;;;2.70;;
20000;SDS011;10161;41.188;-8.642;2023-05-10T08:01:15;7.03;;;2.70;;
20000;SDS011;10161;41.188;-8.642;2023-05-10T08:03:43;8.20;;;2.63;;
20000;SDS011;10161;41.188;-8.642;2023-05-10T08:06:10;5.57;;;2.60;;
20000;SDS011;10161;41.188;-8.642;2023-05-10T08:08:37;6.60;;;2.60;;
20000;SDS011;10161;41.188;-8.642;2023-05-10T08:11:04;5.47;;;2.30;;
20000;SDS011;10161;41.188;-8.642;2023-05-10T08:13:31;16.23;;;2.83;;
20000;SDS011;10161;41.188;-8.642;2023-05-10T08:16:00;9.60;;;2.60;;
20000;SDS011;10161;41.188;-8.642;2023-05-10T08:18:27;7.07;;;2.57;;
20000;SDS011;10161;41.188;-8.642;2023-05-10T08:20:54;7.40;;;2.83;;
20000;SDS011;10161;41.188;-8.642;2023-05-10T08:23:22;5.13;;;1.97;;
20000;SDS011;10161;41.188;-8.642;2023-05-10T08:25:49;5.67;;;2.57;;
20000;SDS011;10161;41.188;-8.642;2023-05-10T08:28:16;5.30;;;2.30;;
20000;SDS011;10161;41.188;-8.642;2023-05-10T08:30:43;7.50;;;2.50;;
20000;SDS011;10161;41.188;-8.642;2023-05-10T08:33:12;5.23;;;2.20;;
20000;SDS011;10161;41.188;-8.642;2023-05-10T08:35:39;7.10;;;2.40;;
20000;SDS011;10161;41.188;-8.642;2023-05-10T08:38:08;3.00;;;1.60;;
20000;SDS011;10161;41.188;-8.642;2023-05-10T08:40:35;6.10;;;2.10;;
20000;SDS011;10161;41.188;-8.642;2023-05-10T08:43:06;5.30;;;2.10;;
20000;SDS011;10161;41.188;-8.642;2023-05-10T08:45:36;5.60;;;2.40;;
20000;SDS011;10161;41.188;-8.642;2023-05-10T08:48:05;6.10;;;2.10;;
20000;SDS011;10161;41.188;-8.642;2023-05-10T08:50:35;3.07;;;2.10;;
20000;SDS011;10161;41.188;-8.642;2023-05-10T08:53:04;4.00;;;2.03;;
20000;SDS011;10161;41.188;-8.642;2023-05-10T08:55:33;5.63;;;2.70;;
20000;SDS011;10161;41.188;-8.642;2023-05-10T08:58:03;8.00;;;2.60;;
20000;SDS011;10161;41.188;-8.642;2023-05-10T09:00:30;8.37;;;2.50;;
20000;SDS011;10161;41.188;-8.642;2023-05-10T09:02:57;5.40;;;1.90;;
20000;SDS011;10161;41.188;-8.642;2023-05-10T09:05:24;5.93;;;2.10;;
20000;SDS011;10161;41.188;-8.642;2023-05-10T09:07:53;6.57;;;2.00;;
20000;SDS011;10161;41.188;-8.642;2023-05-10T09:10:20;5.27;;;2.30;;
20000;SDS011;10161;41.188;-8.642;2023-05-10T09:12:48;5.33;;;2.00;;
20000;SDS011;10161;41.188;-8.642;2023-05-10T09:15:15;3.27;;;1.93;;
20000;SDS011;10161;41.188;-8.642;2023-05-10T09:17:44;5.77;;;2.00;;
20000;SDS011;10161;41.188;-8.642;2023-05-10T09:20:12;6.27;;;2.30;;
20000;SDS011;10161;41.188;-8.642;2023-05-10T09:22:39;8.70;;;2.13;;
20000;SDS011;10161;41.188;-8.642;2023-05-10T09:25:10;7.47;;;1.87;;
20000;SDS011;10161;41.188;-8.642;2023-05-10T09:27:38;3.90;;;1.77;;
20000;SDS011;10161;41.188;-8.642;2023-05-10T09:30:10;6.60;;;2.20;;
20000;SDS011;10161;41.188;-8.642;2023-05-10T09:32:42;5.90;;;2.00;;
20000;SDS011;10161;41.188;-8.642;2023-05-10T09:35:10;3.27;;;1.70;;
20000;SDS011;10161;41.188;-8.642;2023-05-10T09:37:38;5.03;;;1.93;;
20000;SDS011;10161;41.188;-8.642;2023-05-10T09:40:10;9.43;;;1.90;;
20000;SDS011;10161;41.188;-8.642;2023-05-10T09:42:39;3.00;;;1.70;;
20000;SDS011;10161;41.188;-8.642;2023-05-10T09:45:09;5.90;;;1.83;;
20000;SDS011;10161;41.188;-8.642;2023-05-10T09:47:36;4.33;;;1.83;;
20000;SDS011;10161;41.188;-8.642;2023-05-10T09:50:04;6.73;;;1.83;;
20000;SDS011;10161;41.188;-8.642;2023-05-10T09:52:45;2.60;;;1.53;;
20000;SDS011;10161;41.188;-8.642;2023-05-10T09:55:14;5.33;;;2.07;;
20000;SDS011;10161;41.188;-8.642;2023-05-10T09:57:42;7.23;;;2.40;;
20000;SDS011;10161;41.188;-8.642;2023-05-10T10:00:09;5.77;;;1.73;;
20000;SDS011;10161;41.188;-8.642;2023-05-10T10:02:37;5.40;;;2.00;;
20000;SDS011;10161;41.188;-8.642;2023-05-10T10:05:07;9.43;;;1.77;;
20000;SDS011;10161;41.188;-8.642;2023-05-10T10:07:34;4.90;;;2.07;;
20000;SDS011;10161;41.188;-8.642;2023-05-10T10:10:02;4.20;;;1.93;;
20000;SDS011;10161;41.188;-8.642;2023-05-10T10:12:32;5.03;;;1.70;;
20000;SDS011;10161;41.188;-8.642;2023-05-10T10:14:59;3.10;;;1.50;;
20000;SDS011;10161;41.188;-8.642;2023-05-10T10:17:26;4.97;;;2.40;;
20000;SDS011;10161;41.188;-8.642;2023-05-10T10:19:55;4.83;;;1.93;;
20000;SDS011;10161;41.188;-8.642;2023-05-10T10:22:24;3.80;;;1.90;;
20000;SDS011;10161;41.188;-8.642;2023-05-10T10:24:51;4.80;;;2.33;;
20000;SDS011;10161;41.188;-8.642;2023-05-10T10:27:21;11.40;;;2.50;;
20000;SDS011;10161;41.188;-8.642;2023-05-10T10:29:59;8.33;;;2.00;;
20000;SDS011;10161;41.188;-8.642;2023-05-10T10:32:33;4.40;;;1.70;;
20000;SDS011;10161;41.188;-8.642;2023-05-10T10:35:06;2.50;;;1.57;;
20000;SDS011;10161;41.188;-8.642;2023-05-10T10:37:45;4.60;;;1.90;;
20000;SDS011;10161;41.188;-8.642;2023-05-10T10:40:23;4.00;;;1.70;;
20000;SDS011;10161;41.188;-8.642;2023-05-10T10:42:52;4.90;;;2.07;;
20000;SDS011;10161;41.188;-8.642;2023-05-10T10:45:23;6.30;;;1.83;;
20000;SDS011;10161;41.188;-8.642;2023-05-10T10:47:53;4.43;;;1.93;;
20000;SDS011;10161;41.188;-8.642;2023-05-10T10:50:43;3.30;;;1.90;;
20000;SDS011;10161;41.188;-8.642;2023-05-10T10:53:11;3.40;;;2.20;;
20000;SDS011;10161;41.188;-8.642;2023-05-10T10:55:44;9.67;;;2.23;;
20000;SDS011;10161;41.188;-8.642;2023-05-10T10:58:14;4.03;;;1.87;;
20000;SDS011;10161;41.188;-8.642;2023-05-10T11:01:10;3.67;;;1.73;;
20000;SDS011;10161;41.188;-8.642;2023-05-10T11:03:40;4.73;;;1.97;;
20000;SDS011;10161;41.188;-8.642;2023-05-10T11:06:09;5.57;;;2.10;;
20000;SDS011;10161;41.188;-8.642;2023-05-10T11:08:41;7.40;;;2.67;;
20000;SDS011;10161;41.188;-8.642;2023-05-10T11:11:13;6.83;;;2.47;;
20000;SDS011;10161;41.188;-8.642;2023-05-10T11:13:43;3.90;;;2.17;;
20000;SDS011;10161;41.188;-8.642;2023-05-10T11:16:16;3.10;;;1.40;;
20000;SDS011;10161;41.188;-8.642;2023-05-10T11:18:59;3.03;;;1.93;;
20000;SDS011;10161;41.188;-8.642;2023-05-10T11:21:28;7.40;;;2.30;;
20000;SDS011;10161;41.188;-8.642;2023-05-10T11:23:56;3.80;;;1.97;;
20000;SDS011;10161;41.188;-8.642;2023-05-10T11:26:24;6.17;;;2.17;;
20000;SDS011;10161;41.188;-8.642;2023-05-10T11:28:52;8.20;;;2.53;;
20000;SDS011;10161;41.188;-8.642;2023-05-10T11:31:23;6.73;;;2.50;;
20000;SDS011;10161;41.188;-8.642;2023-05-10T11:33:52;11.77;;;2.87;;
20000;SDS011;10161;41.188;-8.642;2023-05-10T11:36:20;11.73;;;3.13;;
20000;SDS011;10161;41.188;-8.642;2023-05-10T11:38:48;5.57;;;2.53;;
20000;SDS011;10161;41.188;-8.642;2023-05-10T11:41:16;7.13;;;2.60;;
20000;SDS011;10161;41.188;-8.642;2023-05-10T11:43:49;9.20;;;2.60;;
20000;SDS011;10161;41.188;-8.642;2023-05-10T11:46:19;8.40;;;3.17;;
20000;SDS011;10161;41.188;-8.642;2023-05-10T11:48:49;8.67;;;2.37;;
20000;SDS011;10161;41.188;-8.642;2023-05-10T11:51:19;8.50;;;3.23;;
20000;SDS011;10161;41.188;-8.642;2023-05-10T11:53:47;7.47;;;3.00;;
20000;SDS011;10161;41.188;-8.642;2023-05-10T11:56:15;13.07;;;3.57;;
20000;SDS011;10161;41.188;-8.642;2023-05-10T11:58:44;7.20;;;2.80;;
20000;SDS011;10161;41.188;-8.642;2023-05-10T12:01:12;7.20;;;2.87;;
20000;SDS011;10161;41.188;-8.642;2023-05-10T12:03:39;9.37;;;2.70;;
20000;SDS011;10161;41.188;-8.642;2023-05-10T12:06:08;9.43;;;2.97;;
20000;SDS011;10161;41.188;-8.642;2023-05-10T12:08:35;5.80;;;2.40;;
20000;SDS011;10161;41.188;-8.642;2023-05-10T12:11:06;7.37;;;2.80;;
20000;SDS011;10161;41.188;-8.642;2023-05-10T12:13:37;5.00;;;2.60;;
20000;SDS011;10161;41.188;-8.642;2023-05-10T12:16:16;3.90;;;2.20;;
20000;SDS011;10161;41.188;-8.642;2023-05-10T12:18:44;15.60;;;3.30;;
20000;SDS011;10161;41.188;-8.642;2023-05-10T12:21:14;9.50;;;2.77;;
20000;SDS011;10161;41.188;-8.642;2023-05-10T12:23:42;7.37;;;2.90;;
20000;SDS011;10161;41.188;-8.642;2023-05-10T12:26:09;6.93;;;2.60;;
20000;SDS011;10161;41.188;-8.642;2023-05-10T12:28:37;6.60;;;2.40;;
20000;SDS011;10161;41.188;-8.642;2023-05-10T12:31:05;8.70;;;2.90;;
20000;SDS011;10161;41.188;-8.642;2023-05-10T12:33:38;11.33;;;3.00;;
20000;SDS011;10161;41.188;-8.642;2023-05-10T12:36:08;9.77;;;3.30;;
20000;SDS011;10161;41.188;-8.642;2023-05-10T12:38:37;13.10;;;3.70;;
20000;SDS011;10161;41.188;-8.642;2023-05-10T12:41:08;6.93;;;2.73;;
20000;SDS011;10161;41.188;-8.642;2023-05-10T12:43:36;6.10;;;2.50;;
20000;SDS011;10161;41.188;-8.642;2023-05-10T12:46:04;15.03;;;2.80;;
20000;SDS011;10161;41.188;-8.642;2023-05-10T12:48:32;10.47;;;2.90;;
20000;SDS011;10161;41.188;-8.642;2023-05-10T12:51:00;9.03;;;3.13;;
20000;SDS011;10161;41.188;-8.642;2023-05-10T12:53:28;8.83;;;3.10;;
20000;SDS011;10161;41.188;-8.642;2023-05-10T12:55:57;5.37;;;2.40;;
20000;SDS011;10161;41.188;-8.642;2023-05-10T12:58:25;9.00;;;2.80;;
20000;SDS011;10161;41.188;-8.642;2023-05-10T13:00:52;8.47;;;2.77;;
20000;SDS011;10161;41.188;-8.642;2023-05-10T13:03:21;12.57;;;3.70;;
20000;SDS011;10161;41.188;-8.642;2023-05-10T13:05:48;9.10;;;2.93;;
20000;SDS011;10161;41.188;-8.642;2023-05-10T13:08:15;8.50;;;2.77;;
20000;SDS011;10161;41.188;-8.642;2023-05-10T13:10:42;7.97;;;2.67;;
20000;SDS011;10161;41.188;-8.642;2023-05-10T13:13:11;10.17;;;2.80;;
20000;SDS011;10161;41.188;-8.642;2023-05-10T13:15:39;7.40;;;2.70;;
20000;SDS011;10161;41.188;-8.642;2023-05-10T13:18:06;7.63;;;2.70;;
20000;SDS011;10161;41.188;-8.642;2023-05-10T13:20:36;6.10;;;2.30;;
20000;SDS011;10161;41.188;-8.642;2023-05-10T13:23:05;10.07;;;3.27;;
20000;SDS011;10161;41.188;-8.642;2023-05-10T13:25:32;11.30;;;3.00;;
20000;SDS011;10161;41.188;-8.642;2023-05-10T13:28:00;9.00;;;3.50;;
20000;SDS011;10161;41.188;-8.642;2023-05-10T13:30:29;9.83;;;2.60;;
20000;SDS011;10161;41.188;-8.642;2023-05-10T13:32:56;20.20;;;3.07;;
20000;SDS011;10161;41.188;-8.642;2023-05-10T13:35:24;7.20;;;2.90;;
20000;SDS011;10161;41.188;-8.642;2023-05-10T13:37:51;6.37;;;2.70;;
20000;SDS011;10161;41.188;-8.642;2023-05-10T13:40:21;9.27;;;2.53;;
20000;SDS011;10161;41.188;-8.642;2023-05-10T13:42:49;7.43;;;2.60;;
20000;SDS011;10161;41.188;-8.642;2023-05-10T13:45:16;9.37;;;2.73;;
20000;SDS011;10161;41.188;-8.642;2023-05-10T13:47:45;7.17;;;2.30;;
20000;SDS011;10161;41.188;-8.642;2023-05-10T13:50:12;8.03;;;2.70;;
20000;SDS011;10161;41.188;-8.642;2023-05-10T13:52:39;8.53;;;2.47;;
20000;SDS011;10161;41.188;-8.642;2023-05-10T13:55:07;7.97;;;2.30;;
20000;SDS011;10161;41.188;-8.642;2023-05-10T13:57:37;4.63;;;2.20;;
20000;SDS011;10161;41.188;-8.642;2023-05-10T14:00:05;10.53;;;2.40;;
20000;SDS011;10161;41.188;-8.642;2023-05-10T14:02:32;9.97;;;2.53;;
20000;SDS011;10161;41.188;-8.642;2023-05-10T14:05:01;6.37;;;2.60;;
20000;SDS011;10161;41.188;-8.642;2023-05-10T14:07:29;5.77;;;2.37;;
20000;SDS011;10161;41.188;-8.642;2023-05-10T14:09:56;7.57;;;2.83;;
20000;SDS011;10161;41.188;-8.642;2023-05-10T14:12:23;6.90;;;2.50;;
20000;SDS011;10161;41.188;-8.642;2023-05-10T14:14:50;7.23;;;3.00;;
20000;SDS011;10161;41.188;-8.642;2023-05-10T14:17:17;7.20;;;2.20;;
20000;SDS011;10161;41.188;-8.642;2023-05-10T14:19:44;6.97;;;2.57;;
20000;SDS011;10161;41.188;-8.642;2023-05-10T14:22:13;4.50;;;2.10;;
20000;SDS011;10161;41.188;-8.642;2023-05-10T14:24:41;5.07;;;2.10;;
20000;SDS011;10161;41.188;-8.642;2023-05-10T14:27:11;11.37;;;2.77;;
20000;SDS011;10161;41.188;-8.642;2023-05-10T14:29:39;8.73;;;3.03;;
20000;SDS011;10161;41.188;-8.642;2023-05-10T14:32:06;6.73;;;2.40;;
20000;SDS011;10161;41.188;-8.642;2023-05-10T14:34:33;8.93;;;2.80;;
20000;SDS011;10161;41.188;-8.642;2023-05-10T14:37:00;11.03;;;3.13;;
20000;SDS011;10161;41.188;-8.642;2023-05-10T14:39:28;6.33;;;2.70;;
20000;SDS011;10161;41.188;-8.642;2023-05-10T14:41:56;12.10;;;2.97;;
20000;SDS011;10161;41.188;-8.642;2023-05-10T14:44:23;10.80;;;2.50;;
20000;SDS011;10161;41.188;-8.642;2023-05-10T14:46:52;5.80;;;2.60;;